createdAt,value
2023-01-20T00:00:12.779Z,100.00
2023-01-20T00:02:39.830Z,100.00
2023-01-20T00:05:06.923Z,100.00
2023-01-20T00:07:34.788Z,100.00
2023-01-20T00:10:01.332Z,100.00
2023-01-20T00:12:30.616Z,100.00
2023-01-20T00:14:57.187Z,100.00
2023-01-20T00:17:23.828Z,100.00
2023-01-20T00:19:50.306Z,100.00
2023-01-20T00:22:16.767Z,100.00
2023-01-20T00:24:43.173Z,100.00
2023-01-20T00:27:09.837Z,100.00
2023-01-20T00:29:36.339Z,100.00
2023-01-20T00:32:03.121Z,100.00
2023-01-20T00:34:29.950Z,100.00
2023-01-20T00:36:56.374Z,100.00
2023-01-20T00:39:23.123Z,100.00
2023-01-20T00:41:49.559Z,100.00
2023-01-20T00:44:16.153Z,100.00
2023-01-20T00:46:42.700Z,100.00
2023-01-20T00:49:09.894Z,100.00
2023-01-20T00:51:36.336Z,100.00
2023-01-20T00:54:03.097Z,100.00
2023-01-20T00:56:29.602Z,100.00
2023-01-20T00:58:56.092Z,100.00
2023-01-20T01:01:22.944Z,100.00
2023-01-20T01:03:53.526Z,100.00
2023-01-20T01:06:20.595Z,100.00
2023-01-20T01:08:47.148Z,100.00
2023-01-20T01:11:14.831Z,100.00
2023-01-20T01:13:41.420Z,100.00
2023-01-20T01:16:14.525Z,100.00
2023-01-20T01:18:41.695Z,100.00
2023-01-20T01:21:13.350Z,100.00
2023-01-20T01:23:39.987Z,100.00
2023-01-20T01:26:06.637Z,100.00
2023-01-20T01:28:33.171Z,100.00
2023-01-20T01:31:04.259Z,100.00
2023-01-20T01:33:31.345Z,100.00
2023-01-20T01:35:58.520Z,100.00
2023-01-20T01:38:25.362Z,100.00
2023-01-20T01:40:52.125Z,100.00
2023-01-20T01:43:27.460Z,100.00
2023-01-20T01:45:54.084Z,100.00
2023-01-20T01:48:27.600Z,100.00
2023-01-20T01:51:00.445Z,100.00
2023-01-20T01:53:27.003Z,100.00
2023-01-20T01:55:55.985Z,100.00
2023-01-20T01:58:25.339Z,100.00
2023-01-20T02:00:51.816Z,100.00
2023-01-20T02:03:19.059Z,100.00
2023-01-20T02:05:45.844Z,100.00
2023-01-20T02:08:12.344Z,100.00
2023-01-20T02:10:38.869Z,100.00
2023-01-20T02:13:05.505Z,100.00
2023-01-20T02:15:51.521Z,100.00
2023-01-20T02:18:43.121Z,100.00
2023-01-20T02:21:20.715Z,100.00
2023-01-20T02:24:22.979Z,100.00
2023-01-20T02:27:19.075Z,100.00
2023-01-20T02:30:30.848Z,100.00
2023-01-20T02:32:59.081Z,100.00
2023-01-20T02:35:52.362Z,100.00
2023-01-20T02:38:21.977Z,100.00
2023-01-20T02:41:06.847Z,100.00
2023-01-20T02:43:38.228Z,100.00
2023-01-20T02:46:15.451Z,100.00
2023-01-20T02:48:54.715Z,100.00
2023-01-20T02:51:25.063Z,100.00
2023-01-20T02:53:54.523Z,100.00
2023-01-20T02:56:22.951Z,100.00
2023-01-20T02:58:56.132Z,100.00
2023-01-20T03:01:34.523Z,100.00
2023-01-20T03:04:01.760Z,100.00
2023-01-20T03:06:31.346Z,100.00
2023-01-20T03:08:59.220Z,100.00
2023-01-20T03:11:25.951Z,100.00
2023-01-20T03:14:10.117Z,100.00
2023-01-20T03:16:36.552Z,100.00
2023-01-20T03:19:03.732Z,100.00
2023-01-20T03:21:30.736Z,100.00
2023-01-20T03:24:00.140Z,100.00
2023-01-20T03:26:26.949Z,100.00
2023-01-20T03:28:56.054Z,100.00
2023-01-20T03:31:28.154Z,99.58
2023-01-20T03:33:56.586Z,99.67
2023-01-20T03:36:24.268Z,99.09
2023-01-20T03:38:50.794Z,98.97
2023-01-20T03:41:22.594Z,98.69
2023-01-20T03:43:57.044Z,97.65
2023-01-20T03:46:32.472Z,97.48
2023-01-20T03:49:09.280Z,97.57
2023-01-20T03:52:01.267Z,97.53
2023-01-20T03:54:32.988Z,97.30
2023-01-20T03:57:03.552Z,97.40
2023-01-20T03:59:32.205Z,97.42
2023-01-20T04:02:01.772Z,97.27
2023-01-20T04:04:28.911Z,97.16
2023-01-20T04:06:55.360Z,96.98
2023-01-20T04:09:24.325Z,97.06
2023-01-20T04:11:50.887Z,97.56
2023-01-20T04:14:17.305Z,98.17
2023-01-20T04:16:50.287Z,98.23
2023-01-20T04:19:16.829Z,97.25
2023-01-20T04:21:48.465Z,97.37
2023-01-20T04:24:42.499Z,97.56
2023-01-20T04:27:09.117Z,97.30
2023-01-20T04:29:35.756Z,97.53
2023-01-20T04:32:02.589Z,97.27
2023-01-20T04:34:29.369Z,97.27
2023-01-20T04:36:55.820Z,96.53
2023-01-20T04:39:22.423Z,96.57
2023-01-20T04:41:48.906Z,96.37
2023-01-20T04:44:15.614Z,96.16
2023-01-20T04:46:42.147Z,96.84
2023-01-20T04:49:10.394Z,96.86
2023-01-20T04:51:36.868Z,96.79
2023-01-20T04:54:03.403Z,96.60
2023-01-20T04:56:29.889Z,96.15
2023-01-20T04:58:56.365Z,95.74
2023-01-20T05:01:22.943Z,95.25
2023-01-20T05:03:49.484Z,94.67
2023-01-20T05:06:16.231Z,94.46
2023-01-20T05:08:45.094Z,94.39
2023-01-20T05:11:11.596Z,94.79
2023-01-20T05:13:39.583Z,94.78
2023-01-20T05:16:07.503Z,95.43
2023-01-20T05:19:23.689Z,95.41
2023-01-20T05:21:50.314Z,95.05
2023-01-20T05:24:17.027Z,94.84
2023-01-20T05:26:43.731Z,94.82
2023-01-20T05:29:10.408Z,94.59
2023-01-20T05:31:38.780Z,94.95
2023-01-20T05:34:05.530Z,95.00
2023-01-20T05:36:32.919Z,95.33
2023-01-20T08:15:30.795Z,100.00
2023-01-20T08:17:58.609Z,100.00
2023-01-20T08:20:25.309Z,100.00
2023-01-20T08:22:52.105Z,100.00
2023-01-20T08:25:18.824Z,100.00
2023-01-20T08:27:48.076Z,100.00
2023-01-20T08:30:15.162Z,100.00
2023-01-20T08:32:41.927Z,100.00
2023-01-20T08:35:08.796Z,100.00
2023-01-20T08:37:38.602Z,100.00
2023-01-20T08:40:09.823Z,100.00
2023-01-20T08:42:37.126Z,100.00
2023-01-20T08:45:04.995Z,100.00
2023-01-20T08:47:32.171Z,100.00
2023-01-20T08:49:58.830Z,100.00
2023-01-20T08:52:25.674Z,100.00
2023-01-20T08:54:53.347Z,100.00
2023-01-20T08:57:20.013Z,100.00
2023-01-20T08:59:47.384Z,100.00
2023-01-20T09:02:14.169Z,100.00
2023-01-20T09:04:40.928Z,100.00
2023-01-20T09:07:08.271Z,100.00
2023-01-20T09:09:36.678Z,100.00
2023-01-20T09:12:04.649Z,100.00
2023-01-20T09:14:31.329Z,100.00
2023-01-20T09:16:58.250Z,100.00
2023-01-20T09:19:24.930Z,100.00
2023-01-20T09:21:51.605Z,100.00
2023-01-20T09:24:18.448Z,100.00
2023-01-20T09:26:45.345Z,99.83
2023-01-20T09:29:14.240Z,99.27
2023-01-20T09:31:44.709Z,98.64
2023-01-20T09:34:19.567Z,98.35
2023-01-20T09:36:56.270Z,98.12
2023-01-20T09:39:41.717Z,97.67
2023-01-20T09:43:12.723Z,97.09
2023-01-20T09:45:45.553Z,96.39
2023-01-20T09:48:54.564Z,96.39
2023-01-20T09:51:47.572Z,96.02
2023-01-20T09:54:22.895Z,95.88
2023-01-20T09:56:49.689Z,95.53
2023-01-20T09:59:28.147Z,95.24
2023-01-20T10:01:56.741Z,95.28
2023-01-20T10:04:37.177Z,95.38
2023-01-20T10:07:12.957Z,95.24
2023-01-20T10:09:56.538Z,94.94
2023-01-20T10:12:32.207Z,94.50
2023-01-20T10:15:07.549Z,94.32
2023-01-20T10:17:39.033Z,94.21
2023-01-20T10:20:12.100Z,93.96
2023-01-20T10:22:48.128Z,93.78
2023-01-20T10:25:22.177Z,93.68
2023-01-20T10:27:55.709Z,93.20
2023-01-20T10:30:24.552Z,92.81
2023-01-20T10:32:57.503Z,92.83
2023-01-20T10:35:28.843Z,92.47
2023-01-20T10:37:55.835Z,92.16
2023-01-20T10:40:29.831Z,91.86
2023-01-20T10:42:58.641Z,91.69
2023-01-20T10:45:43.787Z,91.43
2023-01-20T10:48:30.304Z,91.38
2023-01-20T10:51:20.737Z,91.42
2023-01-20T10:53:56.321Z,91.22
2023-01-20T10:56:53.700Z,91.03
2023-01-20T10:59:39.811Z,90.53
2023-01-20T11:02:38.162Z,90.18
2023-01-20T11:05:21.041Z,89.96
2023-01-20T11:07:47.871Z,89.45
2023-01-20T11:10:19.527Z,89.34
2023-01-20T11:12:48.883Z,89.27
2023-01-20T11:15:22.380Z,89.20
2023-01-20T11:18:07.856Z,88.58
2023-01-20T11:20:35.012Z,88.46
2023-01-20T11:23:01.732Z,88.51
2023-01-20T11:25:28.362Z,88.33
2023-01-20T11:27:55.102Z,88.28
2023-01-20T11:30:27.435Z,88.01
2023-01-20T11:33:17.058Z,88.06
2023-01-20T11:36:03.700Z,87.87
2023-01-20T11:38:50.838Z,87.83
2023-01-20T11:41:20.043Z,87.53
2023-01-20T11:43:46.847Z,86.98
2023-01-20T11:46:22.549Z,86.87
2023-01-20T11:48:50.212Z,86.67
2023-01-20T11:51:27.361Z,86.36
2023-01-20T11:54:15.514Z,86.08
2023-01-20T11:56:43.046Z,85.82
2023-01-20T11:59:24.589Z,85.67
2023-01-20T12:01:58.018Z,85.46
2023-01-20T12:04:31.980Z,85.27
2023-01-20T12:07:02.874Z,85.69
2023-01-20T12:09:38.387Z,85.93
2023-01-20T12:12:18.105Z,85.66
2023-01-20T12:15:02.297Z,85.67
2023-01-20T12:17:48.966Z,85.41
2023-01-20T12:20:15.861Z,85.45
2023-01-20T12:23:06.003Z,85.41
2023-01-20T12:25:37.665Z,85.33
2023-01-20T12:28:11.001Z,85.54
2023-01-20T12:30:53.362Z,85.80
2023-01-20T12:33:22.214Z,85.45
2023-01-20T12:36:27.497Z,85.25
2023-01-20T12:39:21.123Z,84.63
2023-01-20T12:42:01.805Z,84.33
2023-01-20T12:44:42.177Z,84.04
2023-01-20T12:47:14.628Z,83.20
2023-01-20T12:50:19.038Z,83.17
2023-01-20T12:53:04.129Z,83.04
2023-01-20T12:55:49.000Z,82.88
2023-01-20T12:58:32.083Z,82.67
2023-01-20T13:01:36.087Z,82.35
2023-01-20T13:04:40.549Z,82.08
2023-01-20T13:07:19.244Z,82.06
2023-01-20T13:09:58.091Z,82.55
2023-01-20T13:12:43.567Z,82.64
2023-01-20T13:15:15.269Z,82.70
2023-01-20T13:18:01.091Z,82.45
2023-01-20T13:20:28.488Z,82.36
2023-01-20T13:22:55.458Z,82.11
2023-01-20T13:25:22.394Z,81.91
2023-01-20T13:27:51.141Z,81.69
2023-01-20T13:30:37.104Z,81.38
2023-01-20T13:33:07.787Z,81.28
2023-01-20T13:35:46.949Z,81.12
2023-01-20T13:38:19.081Z,80.95
2023-01-20T13:40:45.783Z,81.00
2023-01-20T17:53:36.161Z,99.92
2023-01-20T17:56:12.480Z,99.90
2023-01-20T17:58:39.968Z,99.66
2023-01-20T18:01:20.441Z,99.38
2023-01-20T18:03:48.250Z,98.97
2023-01-20T18:06:15.871Z,98.47
2023-01-20T18:08:42.723Z,98.23
2023-01-20T18:11:19.394Z,98.02
2023-01-20T18:13:46.362Z,98.17
2023-01-20T18:16:14.228Z,97.93
2023-01-20T18:18:41.564Z,97.42
2023-01-20T18:21:12.680Z,97.14
2023-01-20T18:23:39.593Z,97.06
2023-01-20T18:26:06.902Z,96.73
2023-01-20T18:28:33.739Z,96.91
2023-01-20T18:31:24.617Z,96.55
2023-01-20T18:33:56.303Z,96.48
2023-01-20T18:36:48.548Z,96.49
2023-01-20T18:39:17.218Z,96.22
2023-01-20T18:41:43.942Z,96.43
2023-01-20T18:44:10.788Z,96.71
2023-01-20T18:46:37.651Z,96.63
2023-01-20T18:49:05.841Z,96.52
2023-01-20T18:51:33.929Z,96.44
2023-01-20T18:54:05.961Z,96.35
2023-01-20T18:56:35.678Z,96.17
2023-01-20T18:59:03.195Z,95.71
2023-01-20T19:01:33.758Z,95.71
2023-01-20T19:04:01.453Z,95.59
2023-01-20T19:06:29.483Z,95.57
2023-01-20T19:08:57.349Z,95.16
2023-01-20T19:11:29.330Z,95.04
2023-01-20T19:13:56.084Z,95.07
2023-01-20T19:16:24.820Z,94.53
2023-01-20T19:18:53.031Z,94.36
2023-01-20T19:21:20.030Z,94.16
2023-01-20T19:23:54.128Z,94.09
2023-01-20T19:26:21.799Z,94.11
2023-01-20T19:28:55.096Z,94.39
2023-01-20T19:31:21.922Z,94.66
2023-01-20T19:33:51.649Z,94.55
2023-01-20T19:36:18.747Z,94.19
2023-01-20T19:38:45.548Z,93.67
2023-01-20T19:41:29.038Z,93.29
2023-01-20T19:43:57.338Z,93.15
2023-01-20T19:46:25.988Z,93.10
2023-01-20T19:48:53.308Z,93.16
2023-01-20T19:51:20.256Z,93.04
2023-01-20T19:53:47.388Z,93.13
2023-01-20T19:56:15.457Z,93.63
2023-01-20T19:58:42.700Z,94.10
2023-01-20T20:01:26.042Z,94.47
2023-01-20T20:03:53.106Z,94.84
2023-01-20T20:06:32.760Z,94.99
2023-01-20T20:09:01.363Z,94.92
2023-01-20T20:11:28.403Z,94.64
2023-01-20T20:14:00.831Z,94.53
2023-01-20T20:16:30.226Z,94.52
2023-01-20T20:18:57.439Z,94.41
2023-01-20T20:21:24.208Z,94.66
2023-01-20T20:23:52.194Z,94.93
2023-01-20T20:26:19.459Z,95.43
2023-01-20T20:28:46.214Z,95.63
2023-01-20T20:31:13.143Z,95.92
2023-01-20T20:33:41.150Z,95.76
2023-01-20T20:36:09.113Z,95.76
2023-01-20T20:38:36.767Z,95.86
2023-01-20T20:41:04.321Z,96.02
2023-01-20T20:43:31.033Z,95.76
2023-01-20T20:46:01.532Z,95.63
2023-01-20T20:48:28.719Z,95.31
2023-01-20T20:50:55.492Z,95.22
2023-01-20T20:53:22.221Z,95.01
2023-01-20T20:55:51.509Z,94.81
2023-01-20T20:58:18.150Z,94.86
2023-01-20T21:00:49.397Z,94.82
2023-01-20T21:03:16.077Z,94.64
2023-01-20T21:05:46.506Z,94.59
2023-01-20T21:08:13.482Z,94.60
2023-01-20T21:10:41.123Z,94.72
2023-01-20T21:13:08.347Z,94.99
2023-01-20T21:15:35.706Z,95.02
2023-01-20T21:18:02.352Z,94.79
2023-01-20T21:20:31.243Z,94.78
2023-01-20T21:22:58.142Z,94.36
2023-01-20T21:25:25.015Z,94.23
2023-01-20T21:27:51.666Z,94.08
2023-01-20T21:30:19.188Z,94.02
2023-01-20T21:32:45.997Z,93.86
2023-01-20T21:35:12.704Z,93.67
2023-01-20T21:37:39.458Z,93.49
2023-01-20T21:40:06.755Z,93.24
2023-01-20T21:42:33.411Z,93.13
2023-01-20T21:45:00.081Z,92.87
2023-01-20T21:47:26.802Z,92.51
2023-01-20T23:56:01.586Z,100.00
2023-01-20T23:58:28.412Z,100.00
